Moffett, Oklahoma
Current Conditions -  °F | °C
As of 3:53 AM on Sunday 23 Nov 2014 (Local Time) from KFSM Reporting Station
Haze Haze  
Wind Chill: 55°   Ceiling: 2800
Heat Index: 55°   Visibility: 6mi
Dew Point: 53°   Wind: 9mph
Humidity: 93%   Direction: 80°E
Pressure: 29.64"   Gusts: NA
Location:  35.39°N, 94.45°W
Report Text: KFSM 230953Z AUTO 08008KT 6SM BR FEW023 BKN028 OVC038 13/12 A2964 RMK AO2 SLP034 T01280117
Loading
Personal Weather Stations






























Interactive Weather Map New forecast layout! Learn more

10-Day Weather Forecast

Advertisements
Track Severe Weather on mobile